sensor_id;sensor_type;location;lat;lon;timestamp;P1;durP1;ratioP1;P2;durP2;ratioP2
22837;SDS011;11585;51.450;-0.240;2023-03-01T00:00:18;10.20;;;4.53;;
22837;SDS011;11585;51.450;-0.240;2023-03-01T00:02:46;8.45;;;4.50;;
22837;SDS011;11585;51.450;-0.240;2023-03-01T00:05:11;7.47;;;4.35;;
22837;SDS011;11585;51.450;-0.240;2023-03-01T00:07:37;15.70;;;4.30;;
22837;SDS011;11585;51.450;-0.240;2023-03-01T00:10:03;8.02;;;4.53;;
22837;SDS011;11585;51.450;-0.240;2023-03-01T00:19:14;12.30;;;4.35;;
22837;SDS011;11585;51.450;-0.240;2023-03-01T00:21:41;8.68;;;4.43;;
22837;SDS011;11585;51.450;-0.240;2023-03-01T00:27:12;9.35;;;4.93;;
22837;SDS011;11585;51.450;-0.240;2023-03-01T00:29:38;8.23;;;4.55;;
22837;SDS011;11585;51.450;-0.240;2023-03-01T00:32:06;13.73;;;5.20;;
22837;SDS011;11585;51.450;-0.240;2023-03-01T00:34:31;8.52;;;4.47;;
22837;SDS011;11585;51.450;-0.240;2023-03-01T00:36:57;13.70;;;4.93;;
22837;SDS011;11585;51.450;-0.240;2023-03-01T00:39:29;7.72;;;4.88;;
22837;SDS011;11585;51.450;-0.240;2023-03-01T00:41:55;17.55;;;7.03;;
22837;SDS011;11585;51.450;-0.240;2023-03-01T00:44:21;16.45;;;6.20;;
22837;SDS011;11585;51.450;-0.240;2023-03-01T00:46:47;22.85;;;9.32;;
22837;SDS011;11585;51.450;-0.240;2023-03-01T00:49:13;20.60;;;9.20;;
22837;SDS011;11585;51.450;-0.240;2023-03-01T00:51:38;17.23;;;9.52;;
22837;SDS011;11585;51.450;-0.240;2023-03-01T00:57:29;17.05;;;7.85;;
22837;SDS011;11585;51.450;-0.240;2023-03-01T00:59:55;14.40;;;7.50;;
22837;SDS011;11585;51.450;-0.240;2023-03-01T01:05:10;13.65;;;5.55;;
22837;SDS011;11585;51.450;-0.240;2023-03-01T01:07:35;9.73;;;5.78;;
22837;SDS011;11585;51.450;-0.240;2023-03-01T01:10:02;14.88;;;6.90;;
22837;SDS011;11585;51.450;-0.240;2023-03-01T01:15:50;9.90;;;5.25;;
22837;SDS011;11585;51.450;-0.240;2023-03-01T01:18:15;9.23;;;5.10;;
22837;SDS011;11585;51.450;-0.240;2023-03-01T01:20:41;11.52;;;5.32;;
22837;SDS011;11585;51.450;-0.240;2023-03-01T01:26:29;10.05;;;4.65;;
22837;SDS011;11585;51.450;-0.240;2023-03-01T01:28:56;10.68;;;4.57;;
22837;SDS011;11585;51.450;-0.240;2023-03-01T01:31:22;12.57;;;5.40;;
22837;SDS011;11585;51.450;-0.240;2023-03-01T01:36:36;10.13;;;5.10;;
22837;SDS011;11585;51.450;-0.240;2023-03-01T01:39:02;10.55;;;4.72;;
22837;SDS011;11585;51.450;-0.240;2023-03-01T01:41:28;18.90;;;5.65;;
22837;SDS011;11585;51.450;-0.240;2023-03-01T01:47:07;11.45;;;6.38;;
22837;SDS011;11585;51.450;-0.240;2023-03-01T01:49:49;11.32;;;5.38;;
22837;SDS011;11585;51.450;-0.240;2023-03-01T01:55:41;12.88;;;5.10;;
22837;SDS011;11585;51.450;-0.240;2023-03-01T02:00:55;13.93;;;5.60;;
22837;SDS011;11585;51.450;-0.240;2023-03-01T02:03:32;7.65;;;5.15;;
22837;SDS011;11585;51.450;-0.240;2023-03-01T02:06:19;11.27;;;5.13;;
22837;SDS011;11585;51.450;-0.240;2023-03-01T02:08:53;10.95;;;4.80;;
22837;SDS011;11585;51.450;-0.240;2023-03-01T02:11:22;9.18;;;4.60;;
22837;SDS011;11585;51.450;-0.240;2023-03-01T02:17:11;8.48;;;4.40;;
22837;SDS011;11585;51.450;-0.240;2023-03-01T02:22:28;11.27;;;4.18;;
22837;SDS011;11585;51.450;-0.240;2023-03-01T02:27:33;9.35;;;4.15;;
22837;SDS011;11585;51.450;-0.240;2023-03-01T02:30:14;10.63;;;4.85;;
22837;SDS011;11585;51.450;-0.240;2023-03-01T02:35:46;9.15;;;4.30;;
22837;SDS011;11585;51.450;-0.240;2023-03-01T02:38:11;13.30;;;5.18;;
22837;SDS011;11585;51.450;-0.240;2023-03-01T02:40:37;7.57;;;3.40;;
22837;SDS011;11585;51.450;-0.240;2023-03-01T02:46:25;8.13;;;4.20;;
22837;SDS011;11585;51.450;-0.240;2023-03-01T02:48:53;8.00;;;4.00;;
22837;SDS011;11585;51.450;-0.240;2023-03-01T03:00:09;5.70;;;3.60;;
22837;SDS011;11585;51.450;-0.240;2023-03-01T03:06:06;6.70;;;3.58;;
22837;SDS011;11585;51.450;-0.240;2023-03-01T03:08:32;12.77;;;4.10;;
22837;SDS011;11585;51.450;-0.240;2023-03-01T03:10:57;11.05;;;3.55;;
22837;SDS011;11585;51.450;-0.240;2023-03-01T03:16:48;9.00;;;3.70;;
22837;SDS011;11585;51.450;-0.240;2023-03-01T03:19:15;5.68;;;3.38;;
22837;SDS011;11585;51.450;-0.240;2023-03-01T03:21:42;8.55;;;3.90;;
22837;SDS011;11585;51.450;-0.240;2023-03-01T03:27:30;6.90;;;3.85;;
22837;SDS011;11585;51.450;-0.240;2023-03-01T03:29:57;10.55;;;3.65;;
22837;SDS011;11585;51.450;-0.240;2023-03-01T03:32:23;10.07;;;3.40;;
22837;SDS011;11585;51.450;-0.240;2023-03-01T03:34:49;6.80;;;3.25;;
22837;SDS011;11585;51.450;-0.240;2023-03-01T03:37:14;10.90;;;3.83;;
22837;SDS011;11585;51.450;-0.240;2023-03-01T03:39:58;5.57;;;3.17;;
22837;SDS011;11585;51.450;-0.240;2023-03-01T03:45:47;5.85;;;3.00;;
22837;SDS011;11585;51.450;-0.240;2023-03-01T03:48:13;5.65;;;3.33;;
22837;SDS011;11585;51.450;-0.240;2023-03-01T03:50:40;6.03;;;3.22;;
22837;SDS011;11585;51.450;-0.240;2023-03-01T03:55:52;5.57;;;3.20;;
22837;SDS011;11585;51.450;-0.240;2023-03-01T03:58:19;7.97;;;2.83;;
22837;SDS011;11585;51.450;-0.240;2023-03-01T04:00:47;6.97;;;3.15;;
22837;SDS011;11585;51.450;-0.240;2023-03-01T04:06:19;5.65;;;3.05;;
22837;SDS011;11585;51.450;-0.240;2023-03-01T04:08:45;5.35;;;3.22;;
22837;SDS011;11585;51.450;-0.240;2023-03-01T04:11:11;4.20;;;2.83;;
22837;SDS011;11585;51.450;-0.240;2023-03-01T04:13:53;4.95;;;3.20;;
22837;SDS011;11585;51.450;-0.240;2023-03-01T04:18:46;6.82;;;3.00;;
22837;SDS011;11585;51.450;-0.240;2023-03-01T04:21:12;7.88;;;3.10;;
22837;SDS011;11585;51.450;-0.240;2023-03-01T04:23:39;5.07;;;2.83;;
22837;SDS011;11585;51.450;-0.240;2023-03-01T04:26:05;4.55;;;2.92;;
22837;SDS011;11585;51.450;-0.240;2023-03-01T04:28:36;5.28;;;2.88;;
22837;SDS011;11585;51.450;-0.240;2023-03-01T04:31:05;8.25;;;3.42;;
22837;SDS011;11585;51.450;-0.240;2023-03-01T04:33:41;5.70;;;3.28;;
22837;SDS011;11585;51.450;-0.240;2023-03-01T04:36:08;8.45;;;3.13;;
22837;SDS011;11585;51.450;-0.240;2023-03-01T04:38:36;6.55;;;3.40;;
22837;SDS011;11585;51.450;-0.240;2023-03-01T04:41:03;4.10;;;3.10;;
22837;SDS011;11585;51.450;-0.240;2023-03-01T04:43:36;6.97;;;2.95;;
22837;SDS011;11585;51.450;-0.240;2023-03-01T04:46:06;6.53;;;2.97;;
22837;SDS011;11585;51.450;-0.240;2023-03-01T04:48:34;5.93;;;3.05;;
22837;SDS011;11585;51.450;-0.240;2023-03-01T04:51:01;6.15;;;3.05;;
22837;SDS011;11585;51.450;-0.240;2023-03-01T04:53:28;7.13;;;3.17;;
22837;SDS011;11585;51.450;-0.240;2023-03-01T04:55:54;5.07;;;3.22;;
22837;SDS011;11585;51.450;-0.240;2023-03-01T04:58:22;3.70;;;2.70;;
22837;SDS011;11585;51.450;-0.240;2023-03-01T05:00:49;5.33;;;3.07;;
22837;SDS011;11585;51.450;-0.240;2023-03-01T05:03:16;4.82;;;2.75;;
22837;SDS011;11585;51.450;-0.240;2023-03-01T05:05:43;6.80;;;2.90;;
22837;SDS011;11585;51.450;-0.240;2023-03-01T05:08:10;3.65;;;2.65;;
22837;SDS011;11585;51.450;-0.240;2023-03-01T05:10:42;3.47;;;2.42;;
22837;SDS011;11585;51.450;-0.240;2023-03-01T05:16:35;2.55;;;1.98;;
22837;SDS011;11585;51.450;-0.240;2023-03-01T05:19:02;5.00;;;2.20;;
22837;SDS011;11585;51.450;-0.240;2023-03-01T05:21:37;3.67;;;2.00;;
22837;SDS011;11585;51.450;-0.240;2023-03-01T05:24:26;4.53;;;1.95;;
22837;SDS011;11585;51.450;-0.240;2023-03-01T05:26:52;3.50;;;2.00;;
22837;SDS011;11585;51.450;-0.240;2023-03-01T05:29:19;2.30;;;1.70;;
22837;SDS011;11585;51.450;-0.240;2023-03-01T05:31:50;5.40;;;2.47;;
22837;SDS011;11585;51.450;-0.240;2023-03-01T05:34:17;4.93;;;2.28;;
22837;SDS011;11585;51.450;-0.240;2023-03-01T05:36:42;4.53;;;2.58;;
22837;SDS011;11585;51.450;-0.240;2023-03-01T05:39:08;5.22;;;2.17;;
22837;SDS011;11585;51.450;-0.240;2023-03-01T05:41:33;5.38;;;2.50;;
22837;SDS011;11585;51.450;-0.240;2023-03-01T05:43:59;3.00;;;2.30;;
22837;SDS011;11585;51.450;-0.240;2023-03-01T05:46:25;6.10;;;2.33;;
22837;SDS011;11585;51.450;-0.240;2023-03-01T05:48:50;4.75;;;2.15;;
22837;SDS011;11585;51.450;-0.240;2023-03-01T05:51:16;4.82;;;3.17;;
22837;SDS011;11585;51.450;-0.240;2023-03-01T05:56:32;9.00;;;3.75;;
22837;SDS011;11585;51.450;-0.240;2023-03-01T05:58:59;7.18;;;4.47;;
22837;SDS011;11585;51.450;-0.240;2023-03-01T06:01:25;6.90;;;4.45;;
22837;SDS011;11585;51.450;-0.240;2023-03-01T06:06:57;8.45;;;4.10;;
22837;SDS011;11585;51.450;-0.240;2023-03-01T06:09:22;7.50;;;4.65;;
22837;SDS011;11585;51.450;-0.240;2023-03-01T06:11:48;9.80;;;4.75;;
22837;SDS011;11585;51.450;-0.240;2023-03-01T06:17:37;9.65;;;4.68;;
22837;SDS011;11585;51.450;-0.240;2023-03-01T06:28:08;12.50;;;4.88;;
22837;SDS011;11585;51.450;-0.240;2023-03-01T06:30:34;10.52;;;4.97;;
22837;SDS011;11585;51.450;-0.240;2023-03-01T06:36:22;12.45;;;4.97;;
22837;SDS011;11585;51.450;-0.240;2023-03-01T06:38:47;7.13;;;4.05;;
22837;SDS011;11585;51.450;-0.240;2023-03-01T06:41:13;11.13;;;4.15;;
22837;SDS011;11585;51.450;-0.240;2023-03-01T06:43:39;9.57;;;3.83;;
22837;SDS011;11585;51.450;-0.240;2023-03-01T06:46:05;6.03;;;3.17;;
22837;SDS011;11585;51.450;-0.240;2023-03-01T06:48:31;9.18;;;3.70;;
22837;SDS011;11585;51.450;-0.240;2023-03-01T06:50:59;9.75;;;3.53;;
22837;SDS011;11585;51.450;-0.240;2023-03-01T06:55:57;5.88;;;2.92;;
22837;SDS011;11585;51.450;-0.240;2023-03-01T06:58:24;8.20;;;3.30;;
22837;SDS011;11585;51.450;-0.240;2023-03-01T07:00:49;9.55;;;3.28;;
22837;SDS011;11585;51.450;-0.240;2023-03-01T07:03:15;7.53;;;3.47;;
22837;SDS011;11585;51.450;-0.240;2023-03-01T07:05:41;8.18;;;3.88;;
22837;SDS011;11585;51.450;-0.240;2023-03-01T07:08:07;9.63;;;3.38;;
22837;SDS011;11585;51.450;-0.240;2023-03-01T07:10:32;10.98;;;3.63;;
22837;SDS011;11585;51.450;-0.240;2023-03-01T07:12:59;4.70;;;2.90;;
22837;SDS011;11585;51.450;-0.240;2023-03-01T07:15:25;11.55;;;4.13;;
22837;SDS011;11585;51.450;-0.240;2023-03-01T07:17:52;9.70;;;3.28;;
22837;SDS011;11585;51.450;-0.240;2023-03-01T07:20:17;6.45;;;3.20;;
22837;SDS011;11585;51.450;-0.240;2023-03-01T07:22:46;7.43;;;3.20;;
22837;SDS011;11585;51.450;-0.240;2023-03-01T07:25:14;7.68;;;3.20;;
22837;SDS011;11585;51.450;-0.240;2023-03-01T07:27:42;7.18;;;3.42;;
22837;SDS011;11585;51.450;-0.240;2023-03-01T07:30:07;11.02;;;3.65;;
22837;SDS011;11585;51.450;-0.240;2023-03-01T07:35:20;6.80;;;3.28;;
22837;SDS011;11585;51.450;-0.240;2023-03-01T07:37:46;3.85;;;2.80;;
22837;SDS011;11585;51.450;-0.240;2023-03-01T07:40:12;10.10;;;3.35;;
22837;SDS011;11585;51.450;-0.240;2023-03-01T07:45:08;9.52;;;3.20;;
22837;SDS011;11585;51.450;-0.240;2023-03-01T07:47:34;7.85;;;2.67;;
22837;SDS011;11585;51.450;-0.240;2023-03-01T07:49:59;5.85;;;3.10;;
22837;SDS011;11585;51.450;-0.240;2023-03-01T07:55:13;7.13;;;2.60;;
22837;SDS011;11585;51.450;-0.240;2023-03-01T07:57:40;8.88;;;4.03;;
22837;SDS011;11585;51.450;-0.240;2023-03-01T08:00:06;6.53;;;2.97;;
22837;SDS011;11585;51.450;-0.240;2023-03-01T08:02:35;4.57;;;2.65;;
22837;SDS011;11585;51.450;-0.240;2023-03-01T08:05:00;6.20;;;2.60;;
22837;SDS011;11585;51.450;-0.240;2023-03-01T08:07:26;5.45;;;2.40;;
22837;SDS011;11585;51.450;-0.240;2023-03-01T08:09:51;7.70;;;2.67;;
22837;SDS011;11585;51.450;-0.240;2023-03-01T08:12:17;4.72;;;2.58;;
22837;SDS011;11585;51.450;-0.240;2023-03-01T08:14:43;8.50;;;2.40;;
22837;SDS011;11585;51.450;-0.240;2023-03-01T08:17:08;7.43;;;2.53;;
22837;SDS011;11585;51.450;-0.240;2023-03-01T08:19:34;7.50;;;2.03;;
22837;SDS011;11585;51.450;-0.240;2023-03-01T08:24:44;4.65;;;2.42;;
22837;SDS011;11585;51.450;-0.240;2023-03-01T08:27:11;10.55;;;2.30;;
22837;SDS011;11585;51.450;-0.240;2023-03-01T08:29:37;6.90;;;2.72;;
22837;SDS011;11585;51.450;-0.240;2023-03-01T08:32:02;4.93;;;2.30;;
22837;SDS011;11585;51.450;-0.240;2023-03-01T08:34:28;6.88;;;2.67;;
22837;SDS011;11585;51.450;-0.240;2023-03-01T08:36:56;4.95;;;2.85;;
22837;SDS011;11585;51.450;-0.240;2023-03-01T08:39:22;9.43;;;3.13;;
22837;SDS011;11585;51.450;-0.240;2023-03-01T08:41:47;7.30;;;2.70;;
22837;SDS011;11585;51.450;-0.240;2023-03-01T08:46:58;5.93;;;3.08;;
22837;SDS011;11585;51.450;-0.240;2023-03-01T08:49:25;3.83;;;2.67;;
22837;SDS011;11585;51.450;-0.240;2023-03-01T08:51:50;4.63;;;2.80;;
22837;SDS011;11585;51.450;-0.240;2023-03-01T08:57:20;5.50;;;2.78;;
22837;SDS011;11585;51.450;-0.240;2023-03-01T08:59:46;5.43;;;3.00;;
22837;SDS011;11585;51.450;-0.240;2023-03-01T09:08:40;6.25;;;3.00;;
22837;SDS011;11585;51.450;-0.240;2023-03-01T09:11:08;4.88;;;2.60;;
22837;SDS011;11585;51.450;-0.240;2023-03-01T09:13:35;7.38;;;2.88;;
22837;SDS011;11585;51.450;-0.240;2023-03-01T09:16:02;10.43;;;3.33;;
22837;SDS011;11585;51.450;-0.240;2023-03-01T09:18:31;7.03;;;3.00;;
22837;SDS011;11585;51.450;-0.240;2023-03-01T09:21:06;5.43;;;2.88;;
22837;SDS011;11585;51.450;-0.240;2023-03-01T09:23:40;7.72;;;3.88;;
22837;SDS011;11585;51.450;-0.240;2023-03-01T09:26:08;7.65;;;3.03;;
22837;SDS011;11585;51.450;-0.240;2023-03-01T09:28:36;6.13;;;2.40;;
22837;SDS011;11585;51.450;-0.240;2023-03-01T09:31:02;4.45;;;1.60;;
22837;SDS011;11585;51.450;-0.240;2023-03-01T09:33:29;5.20;;;1.67;;
22837;SDS011;11585;51.450;-0.240;2023-03-01T09:36:01;5.43;;;1.90;;
22837;SDS011;11585;51.450;-0.240;2023-03-01T09:38:28;5.18;;;1.92;;
22837;SDS011;11585;51.450;-0.240;2023-03-01T09:40:55;3.13;;;1.40;;
22837;SDS011;11585;51.450;-0.240;2023-03-01T09:43:41;9.23;;;1.60;;
22837;SDS011;11585;51.450;-0.240;2023-03-01T09:46:13;6.30;;;1.80;;
22837;SDS011;11585;51.450;-0.240;2023-03-01T09:51:19;3.42;;;1.80;;
22837;SDS011;11585;51.450;-0.240;2023-03-01T10:02:36;8.57;;;2.03;;
22837;SDS011;11585;51.450;-0.240;2023-03-01T10:05:29;5.78;;;2.20;;
22837;SDS011;11585;51.450;-0.240;2023-03-01T10:08:13;4.15;;;1.60;;
22837;SDS011;11585;51.450;-0.240;2023-03-01T10:10:50;2.70;;;1.52;;
22837;SDS011;11585;51.450;-0.240;2023-03-01T10:20:05;2.10;;;1.45;;
22837;SDS011;11585;51.450;-0.240;2023-03-01T10:25:36;8.13;;;1.85;;
22837;SDS011;11585;51.450;-0.240;2023-03-01T10:30:47;5.57;;;1.50;;
22837;SDS011;11585;51.450;-0.240;2023-03-01T10:33:24;4.85;;;2.00;;
22837;SDS011;11585;51.450;-0.240;2023-03-01T10:35:53;5.72;;;1.77;;
22837;SDS011;11585;51.450;-0.240;2023-03-01T10:38:19;5.85;;;2.47;;
22837;SDS011;11585;51.450;-0.240;2023-03-01T10:41:05;4.25;;;1.75;;
22837;SDS011;11585;51.450;-0.240;2023-03-01T10:46:22;1.92;;;1.30;;
22837;SDS011;11585;51.450;-0.240;2023-03-01T10:49:07;3.35;;;1.70;;
22837;SDS011;11585;51.450;-0.240;2023-03-01T10:51:46;8.95;;;2.13;;
22837;SDS011;11585;51.450;-0.240;2023-03-01T10:56:55;2.30;;;1.52;;
22837;SDS011;11585;51.450;-0.240;2023-03-01T10:59:25;2.93;;;1.60;;
22837;SDS011;11585;51.450;-0.240;2023-03-01T11:10:33;5.97;;;1.92;;
22837;SDS011;11585;51.450;-0.240;2023-03-01T11:13:13;3.08;;;1.70;;
22837;SDS011;11585;51.450;-0.240;2023-03-01T11:15:41;4.15;;;2.20;;
22837;SDS011;11585;51.450;-0.240;2023-03-01T11:18:20;5.90;;;1.77;;
22837;SDS011;11585;51.450;-0.240;2023-03-01T11:20:47;7.80;;;2.50;;
22837;SDS011;11585;51.450;-0.240;2023-03-01T11:26:07;6.03;;;2.10;;
22837;SDS011;11585;51.450;-0.240;2023-03-01T11:28:34;4.70;;;2.53;;
22837;SDS011;11585;51.450;-0.240;2023-03-01T11:31:05;7.20;;;2.67;;
22837;SDS011;11585;51.450;-0.240;2023-03-01T11:36:28;4.80;;;2.30;;
22837;SDS011;11585;51.450;-0.240;2023-03-01T11:45:27;5.30;;;1.92;;
22837;SDS011;11585;51.450;-0.240;2023-03-01T11:50:49;5.70;;;2.50;;
22837;SDS011;11585;51.450;-0.240;2023-03-01T12:02:10;4.07;;;2.47;;
22837;SDS011;11585;51.450;-0.240;2023-03-01T12:04:50;12.05;;;3.78;;
22837;SDS011;11585;51.450;-0.240;2023-03-01T12:10:58;13.75;;;4.20;;
22837;SDS011;11585;51.450;-0.240;2023-03-01T12:16:58;16.02;;;3.88;;
22837;SDS011;11585;51.450;-0.240;2023-03-01T12:25:34;9.00;;;3.97;;
22837;SDS011;11585;51.450;-0.240;2023-03-01T12:39:44;11.52;;;4.38;;
22837;SDS011;11585;51.450;-0.240;2023-03-01T12:51:02;12.18;;;4.25;;
22837;SDS011;11585;51.450;-0.240;2023-03-01T12:56:25;15.25;;;4.90;;
22837;SDS011;11585;51.450;-0.240;2023-03-01T12:59:02;19.05;;;6.78;;
22837;SDS011;11585;51.450;-0.240;2023-03-01T13:01:36;16.80;;;7.93;;
22837;SDS011;11585;51.450;-0.240;2023-03-01T13:04:21;9.75;;;5.22;;
22837;SDS011;11585;51.450;-0.240;2023-03-01T13:07:14;13.00;;;5.10;;
22837;SDS011;11585;51.450;-0.240;2023-03-01T13:10:24;9.95;;;4.05;;
22837;SDS011;11585;51.450;-0.240;2023-03-01T13:21:39;7.28;;;2.95;;
22837;SDS011;11585;51.450;-0.240;2023-03-01T13:35:43;14.43;;;4.93;;
22837;SDS011;11585;51.450;-0.240;2023-03-01T13:41:03;8.05;;;3.28;;
22837;SDS011;11585;51.450;-0.240;2023-03-01T13:46:23;9.20;;;2.85;;
22837;SDS011;11585;51.450;-0.240;2023-03-01T13:48:53;8.43;;;3.13;;
22837;SDS011;11585;51.450;-0.240;2023-03-01T13:51:25;15.65;;;6.45;;
22837;SDS011;11585;51.450;-0.240;2023-03-01T13:57:18;12.77;;;4.05;;
22837;SDS011;11585;51.450;-0.240;2023-03-01T13:59:48;7.03;;;2.85;;
22837;SDS011;11585;51.450;-0.240;2023-03-01T14:05:37;8.15;;;3.00;;
22837;SDS011;11585;51.450;-0.240;2023-03-01T14:08:04;8.20;;;3.13;;
22837;SDS011;11585;51.450;-0.240;2023-03-01T14:10:40;9.10;;;3.78;;
22837;SDS011;11585;51.450;-0.240;2023-03-01T14:21:43;4.88;;;2.78;;
22837;SDS011;11585;51.450;-0.240;2023-03-01T14:27:33;10.15;;;4.47;;
22837;SDS011;11585;51.450;-0.240;2023-03-01T14:33:03;6.30;;;2.30;;
22837;SDS011;11585;51.450;-0.240;2023-03-01T14:35:32;12.20;;;5.78;;
22837;SDS011;11585;51.450;-0.240;2023-03-01T14:37:59;10.07;;;4.25;;
22837;SDS011;11585;51.450;-0.240;2023-03-01T14:40:27;10.55;;;3.97;;
22837;SDS011;11585;51.450;-0.240;2023-03-01T14:45:47;16.67;;;6.05;;
22837;SDS011;11585;51.450;-0.240;2023-03-01T14:48:14;7.30;;;3.00;;
22837;SDS011;11585;51.450;-0.240;2023-03-01T14:50:41;10.75;;;3.90;;
22837;SDS011;11585;51.450;-0.240;2023-03-01T14:56:37;12.98;;;5.22;;
22837;SDS011;11585;51.450;-0.240;2023-03-01T14:59:09;12.80;;;3.75;;
22837;SDS011;11585;51.450;-0.240;2023-03-01T15:01:36;8.18;;;3.35;;
22837;SDS011;11585;51.450;-0.240;2023-03-01T15:07:26;5.15;;;2.83;;
22837;SDS011;11585;51.450;-0.240;2023-03-01T15:10:04;10.70;;;3.83;;
22837;SDS011;11585;51.450;-0.240;2023-03-01T15:15:53;9.35;;;3.13;;
22837;SDS011;11585;51.450;-0.240;2023-03-01T15:18:35;13.50;;;4.75;;
22837;SDS011;11585;51.450;-0.240;2023-03-01T15:21:06;9.63;;;4.00;;
22837;SDS011;11585;51.450;-0.240;2023-03-01T15:30:25;9.82;;;4.35;;
22837;SDS011;11585;51.450;-0.240;2023-03-01T15:42:36;16.90;;;8.82;;
22837;SDS011;11585;51.450;-0.240;2023-03-01T15:47:38;6.82;;;4.32;;
22837;SDS011;11585;51.450;-0.240;2023-03-01T15:50:11;8.25;;;3.83;;
22837;SDS011;11585;51.450;-0.240;2023-03-01T15:58:58;7.10;;;2.85;;
22837;SDS011;11585;51.450;-0.240;2023-03-01T16:01:25;12.15;;;3.63;;
22837;SDS011;11585;51.450;-0.240;2023-03-01T16:03:53;10.45;;;2.78;;
22837;SDS011;11585;51.450;-0.240;2023-03-01T16:06:19;4.75;;;2.30;;
22837;SDS011;11585;51.450;-0.240;2023-03-01T16:08:44;7.40;;;3.10;;
22837;SDS011;11585;51.450;-0.240;2023-03-01T16:11:13;11.55;;;3.97;;
22837;SDS011;11585;51.450;-0.240;2023-03-01T16:17:05;29.35;;;8.20;;
22837;SDS011;11585;51.450;-0.240;2023-03-01T16:19:30;19.70;;;6.63;;
22837;SDS011;11585;51.450;-0.240;2023-03-01T16:24:41;10.13;;;4.13;;
22837;SDS011;11585;51.450;-0.240;2023-03-01T16:27:07;12.98;;;4.97;;
22837;SDS011;11585;51.450;-0.240;2023-03-01T16:29:32;16.35;;;4.55;;
22837;SDS011;11585;51.450;-0.240;2023-03-01T16:32:02;10.40;;;4.15;;
22837;SDS011;11585;51.450;-0.240;2023-03-01T16:34:28;9.43;;;4.75;;
22837;SDS011;11585;51.450;-0.240;2023-03-01T16:36:54;22.85;;;9.70;;
22837;SDS011;11585;51.450;-0.240;2023-03-01T16:39:19;9.05;;;4.50;;
22837;SDS011;11585;51.450;-0.240;2023-03-01T16:41:45;12.77;;;4.00;;
22837;SDS011;11585;51.450;-0.240;2023-03-01T16:47:33;18.73;;;7.13;;
22837;SDS011;11585;51.450;-0.240;2023-03-01T16:49:59;11.77;;;5.00;;
22837;SDS011;11585;51.450;-0.240;2023-03-01T16:55:52;13.23;;;4.97;;
22837;SDS011;11585;51.450;-0.240;2023-03-01T16:58:22;17.08;;;5.72;;
22837;SDS011;11585;51.450;-0.240;2023-03-01T17:00:53;8.55;;;4.57;;
22837;SDS011;11585;51.450;-0.240;2023-03-01T17:06:25;19.27;;;11.00;;
22837;SDS011;11585;51.450;-0.240;2023-03-01T17:08:51;17.17;;;8.68;;
22837;SDS011;11585;51.450;-0.240;2023-03-01T17:11:18;14.18;;;6.25;;
22837;SDS011;11585;51.450;-0.240;2023-03-01T17:17:09;10.57;;;5.88;;
22837;SDS011;11585;51.450;-0.240;2023-03-01T17:19:35;14.45;;;8.20;;
22837;SDS011;11585;51.450;-0.240;2023-03-01T17:25:28;9.52;;;5.00;;
22837;SDS011;11585;51.450;-0.240;2023-03-01T17:27:54;13.88;;;5.60;;
22837;SDS011;11585;51.450;-0.240;2023-03-01T17:30:19;6.43;;;2.67;;
22837;SDS011;11585;51.450;-0.240;2023-03-01T17:36:07;12.02;;;4.80;;
22837;SDS011;11585;51.450;-0.240;2023-03-01T17:38:33;13.80;;;6.32;;
22837;SDS011;11585;51.450;-0.240;2023-03-01T17:41:01;12.57;;;6.00;;
22837;SDS011;11585;51.450;-0.240;2023-03-01T17:43:28;12.30;;;5.43;;
22837;SDS011;11585;51.450;-0.240;2023-03-01T17:45:54;8.77;;;4.50;;
22837;SDS011;11585;51.450;-0.240;2023-03-01T17:48:20;29.10;;;12.85;;
22837;SDS011;11585;51.450;-0.240;2023-03-01T17:50:46;12.02;;;6.93;;
22837;SDS011;11585;51.450;-0.240;2023-03-01T17:59:56;9.05;;;4.53;;
22837;SDS011;11585;51.450;-0.240;2023-03-01T18:05:30;15.13;;;6.70;;
22837;SDS011;11585;51.450;-0.240;2023-03-01T18:07:59;38.63;;;17.65;;
22837;SDS011;11585;51.450;-0.240;2023-03-01T18:10:25;13.73;;;7.32;;
22837;SDS011;11585;51.450;-0.240;2023-03-01T18:12:52;19.20;;;7.43;;
22837;SDS011;11585;51.450;-0.240;2023-03-01T18:15:18;16.40;;;6.60;;
22837;SDS011;11585;51.450;-0.240;2023-03-01T18:17:44;17.90;;;8.43;;
22837;SDS011;11585;51.450;-0.240;2023-03-01T18:20:09;14.88;;;7.45;;
22837;SDS011;11585;51.450;-0.240;2023-03-01T18:22:37;21.55;;;10.40;;
22837;SDS011;11585;51.450;-0.240;2023-03-01T18:25:03;11.27;;;4.35;;
22837;SDS011;11585;51.450;-0.240;2023-03-01T18:27:29;18.10;;;9.32;;
22837;SDS011;11585;51.450;-0.240;2023-03-01T18:29:55;19.98;;;9.88;;
22837;SDS011;11585;51.450;-0.240;2023-03-01T18:35:09;14.98;;;6.88;;
22837;SDS011;11585;51.450;-0.240;2023-03-01T18:37:35;19.05;;;10.27;;
22837;SDS011;11585;51.450;-0.240;2023-03-01T18:40:00;68.70;;;29.88;;
22837;SDS011;11585;51.450;-0.240;2023-03-01T18:45:48;17.65;;;8.10;;
22837;SDS011;11585;51.450;-0.240;2023-03-01T18:48:19;18.63;;;8.88;;
22837;SDS011;11585;51.450;-0.240;2023-03-01T18:50:45;25.40;;;8.65;;
22837;SDS011;11585;51.450;-0.240;2023-03-01T18:56:14;44.13;;;22.45;;
22837;SDS011;11585;51.450;-0.240;2023-03-01T18:58:40;28.17;;;14.57;;
22837;SDS011;11585;51.450;-0.240;2023-03-01T19:01:17;29.85;;;15.43;;
22837;SDS011;11585;51.450;-0.240;2023-03-01T19:03:47;19.08;;;9.82;;
22837;SDS011;11585;51.450;-0.240;2023-03-01T19:06:12;7.72;;;4.38;;
22837;SDS011;11585;51.450;-0.240;2023-03-01T19:08:39;19.00;;;7.38;;
22837;SDS011;11585;51.450;-0.240;2023-03-01T19:11:06;15.20;;;6.82;;
22837;SDS011;11585;51.450;-0.240;2023-03-01T19:16:19;8.15;;;4.78;;
22837;SDS011;11585;51.450;-0.240;2023-03-01T19:21:14;10.55;;;5.00;;
22837;SDS011;11585;51.450;-0.240;2023-03-01T19:23:43;16.38;;;6.65;;
22837;SDS011;11585;51.450;-0.240;2023-03-01T19:26:10;12.75;;;5.65;;
22837;SDS011;11585;51.450;-0.240;2023-03-01T19:28:37;12.50;;;5.15;;
22837;SDS011;11585;51.450;-0.240;2023-03-01T19:31:04;14.35;;;6.50;;
22837;SDS011;11585;51.450;-0.240;2023-03-01T19:36:59;17.73;;;7.03;;
22837;SDS011;11585;51.450;-0.240;2023-03-01T19:39:25;30.00;;;14.38;;
22837;SDS011;11585;51.450;-0.240;2023-03-01T19:41:51;43.67;;;20.92;;
22837;SDS011;11585;51.450;-0.240;2023-03-01T19:46:50;39.63;;;12.02;;
22837;SDS011;11585;51.450;-0.240;2023-03-01T19:49:17;12.60;;;6.20;;
22837;SDS011;11585;51.450;-0.240;2023-03-01T19:51:43;13.40;;;4.68;;
22837;SDS011;11585;51.450;-0.240;2023-03-01T19:56:53;18.63;;;6.72;;
22837;SDS011;11585;51.450;-0.240;2023-03-01T19:59:20;13.43;;;5.00;;
22837;SDS011;11585;51.450;-0.240;2023-03-01T20:01:48;16.98;;;6.40;;
22837;SDS011;11585;51.450;-0.240;2023-03-01T20:04:15;28.40;;;10.27;;
22837;SDS011;11585;51.450;-0.240;2023-03-01T20:06:43;54.85;;;27.95;;
22837;SDS011;11585;51.450;-0.240;2023-03-01T20:09:11;25.63;;;12.60;;
22837;SDS011;11585;51.450;-0.240;2023-03-01T20:11:37;15.02;;;7.10;;
22837;SDS011;11585;51.450;-0.240;2023-03-01T20:16:50;102.70;;;42.45;;
22837;SDS011;11585;51.450;-0.240;2023-03-01T20:19:16;101.13;;;49.72;;
22837;SDS011;11585;51.450;-0.240;2023-03-01T20:21:42;41.13;;;20.75;;
22837;SDS011;11585;51.450;-0.240;2023-03-01T20:26:56;17.42;;;7.40;;
22837;SDS011;11585;51.450;-0.240;2023-03-01T20:29:22;14.35;;;6.50;;
22837;SDS011;11585;51.450;-0.240;2023-03-01T20:31:48;12.32;;;5.18;;
22837;SDS011;11585;51.450;-0.240;2023-03-01T20:34:15;18.95;;;6.88;;
22837;SDS011;11585;51.450;-0.240;2023-03-01T20:36:41;28.38;;;11.02;;
22837;SDS011;11585;51.450;-0.240;2023-03-01T20:39:08;22.10;;;8.07;;
22837;SDS011;11585;51.450;-0.240;2023-03-01T20:41:35;14.90;;;6.15;;
22837;SDS011;11585;51.450;-0.240;2023-03-01T20:44:02;17.30;;;6.22;;
22837;SDS011;11585;51.450;-0.240;2023-03-01T20:46:30;7.00;;;4.03;;
22837;SDS011;11585;51.450;-0.240;2023-03-01T20:49:00;15.95;;;5.47;;
22837;SDS011;11585;51.450;-0.240;2023-03-01T20:51:28;15.27;;;6.72;;
22837;SDS011;11585;51.450;-0.240;2023-03-01T20:56:58;17.02;;;8.23;;